createdAt,value
2023-01-23T00:03:28.438Z,3.28
2023-01-23T00:07:30.219Z,3.75
2023-01-23T00:11:32.202Z,3.35
2023-01-23T00:15:34.032Z,3.58
2023-01-23T00:19:35.828Z,3.00
2023-01-23T00:23:37.765Z,3.00
2023-01-23T00:27:39.532Z,3.53
2023-01-23T00:31:41.393Z,3.25
2023-01-23T00:35:43.439Z,3.05
2023-01-23T00:39:46.190Z,3.20
2023-01-23T00:43:48.549Z,3.15
2023-01-23T00:47:53.311Z,3.42
2023-01-23T00:51:56.465Z,3.35
2023-01-23T00:55:58.360Z,2.75
2023-01-23T01:00:00.229Z,3.50
2023-01-23T01:04:02.269Z,2.78
2023-01-23T01:08:05.262Z,2.80
2023-01-23T01:12:07.196Z,2.67
2023-01-23T01:16:10.349Z,3.10
2023-01-23T01:20:12.698Z,2.60
2023-01-23T01:24:14.461Z,2.78
2023-01-23T01:28:16.581Z,2.80
2023-01-23T01:32:18.322Z,2.60
2023-01-23T01:36:24.170Z,2.65
2023-01-23T01:40:33.434Z,3.60
2023-01-23T01:44:56.755Z,3.15
2023-01-23T01:49:04.393Z,3.85
2023-01-23T01:53:06.699Z,3.75
2023-01-23T01:57:20.962Z,3.28
2023-01-23T02:01:22.994Z,3.08
2023-01-23T02:05:44.034Z,2.95
2023-01-23T02:09:47.612Z,3.17
2023-01-23T02:13:49.477Z,2.65
2023-01-23T02:17:54.745Z,3.63
2023-01-23T02:22:25.420Z,3.20
2023-01-23T02:26:33.055Z,2.80
2023-01-23T02:30:35.085Z,3.50
2023-01-23T02:34:37.499Z,3.63
2023-01-23T02:38:54.757Z,3.17
2023-01-23T02:42:58.727Z,2.60
2023-01-23T02:47:08.066Z,2.55
2023-01-23T02:51:10.099Z,3.67
2023-01-23T02:55:12.218Z,2.80
2023-01-23T02:59:33.270Z,2.83
2023-01-23T03:03:35.162Z,3.03
2023-01-23T03:07:36.973Z,3.58
2023-01-23T03:11:40.726Z,3.38
2023-01-23T03:15:42.626Z,3.10
2023-01-23T03:19:44.877Z,2.50
2023-01-23T03:23:47.875Z,3.13
2023-01-23T03:27:49.632Z,2.72
2023-01-23T03:31:51.459Z,2.92
2023-01-23T03:35:53.342Z,2.95
2023-01-23T03:40:14.070Z,3.25
2023-01-23T03:44:18.976Z,3.40
2023-01-23T03:48:21.208Z,2.80
2023-01-23T03:52:23.715Z,2.63
2023-01-23T03:56:25.682Z,3.50
2023-01-23T04:00:27.527Z,3.80
2023-01-23T04:04:36.930Z,4.63
2023-01-23T04:08:41.736Z,4.82
2023-01-23T04:12:44.786Z,5.15
2023-01-23T04:16:47.177Z,5.63
2023-01-23T04:20:49.199Z,4.05
2023-01-23T04:24:51.179Z,2.97
2023-01-23T04:28:54.181Z,3.45
2023-01-23T04:32:56.138Z,3.60
2023-01-23T04:36:58.253Z,3.75
2023-01-23T04:41:00.420Z,2.97
2023-01-23T04:45:05.872Z,3.10
2023-01-23T04:49:46.450Z,3.17
2023-01-23T04:53:48.823Z,2.80
2023-01-23T04:57:51.972Z,3.85
2023-01-23T05:01:59.135Z,3.85
2023-01-23T05:06:01.415Z,3.55
2023-01-23T05:10:04.009Z,3.72
2023-01-23T05:14:06.232Z,3.58
2023-01-23T05:18:09.078Z,3.30
2023-01-23T05:22:11.783Z,3.88
2023-01-23T05:26:13.741Z,3.95
2023-01-23T05:30:16.460Z,4.28
2023-01-23T05:34:20.485Z,4.55
2023-01-23T05:38:22.442Z,4.32
2023-01-23T05:42:25.243Z,3.85
2023-01-23T05:46:47.498Z,4.68
2023-01-23T05:50:49.448Z,4.97
2023-01-23T05:54:51.886Z,5.63
2023-01-23T05:58:54.054Z,4.75
2023-01-23T06:03:04.049Z,7.15
2023-01-23T06:07:44.546Z,4.60
2023-01-23T06:11:46.579Z,5.90
2023-01-23T06:15:48.741Z,5.03
2023-01-23T06:19:52.616Z,6.10
2023-01-23T06:23:55.472Z,5.80
2023-01-23T06:27:57.501Z,4.50
2023-01-23T06:32:03.022Z,5.22
2023-01-23T06:36:06.339Z,3.80
2023-01-23T06:40:13.152Z,3.45
2023-01-23T06:44:17.282Z,4.72
2023-01-23T06:48:19.665Z,4.60
2023-01-23T06:52:22.809Z,5.35
2023-01-23T06:56:25.526Z,5.60
2023-01-23T07:00:28.169Z,5.35
2023-01-23T07:04:33.258Z,4.03
2023-01-23T07:08:35.671Z,4.43
2023-01-23T07:12:38.144Z,4.55
2023-01-23T07:16:40.853Z,6.22
2023-01-23T07:20:46.771Z,5.00
2023-01-23T07:24:48.841Z,4.47
2023-01-23T07:28:50.709Z,7.18
2023-01-23T07:32:52.590Z,7.95
2023-01-23T07:36:54.360Z,5.40
2023-01-23T07:40:59.290Z,5.40
2023-01-23T07:45:01.108Z,5.32
2023-01-23T07:49:02.870Z,4.55
2023-01-23T07:53:05.751Z,4.80
2023-01-23T07:57:07.961Z,6.55
2023-01-23T08:01:11.188Z,7.85
2023-01-23T08:05:13.032Z,7.47
2023-01-23T08:09:14.854Z,10.93
2023-01-23T08:13:16.991Z,8.15
2023-01-23T08:17:18.726Z,6.45
2023-01-23T08:21:20.875Z,4.43
2023-01-23T08:25:22.655Z,5.85
2023-01-23T08:29:24.508Z,4.70
2023-01-23T08:33:26.360Z,6.18
2023-01-23T08:37:28.631Z,5.60
2023-01-23T08:41:30.587Z,7.65
2023-01-23T08:45:32.421Z,6.40
2023-01-23T08:49:34.433Z,5.03
2023-01-23T08:53:36.772Z,6.00
2023-01-23T08:57:38.543Z,6.95
2023-01-23T09:01:40.264Z,7.22
2023-01-23T09:05:42.047Z,4.97
2023-01-23T09:09:43.882Z,6.85
2023-01-23T09:13:48.835Z,6.97
2023-01-23T09:17:50.707Z,5.88
2023-01-23T09:21:57.051Z,6.03
2023-01-23T09:26:03.696Z,7.40
2023-01-23T09:30:06.136Z,7.75
2023-01-23T09:34:08.032Z,6.30
2023-01-23T09:38:09.879Z,6.03
2023-01-23T09:42:33.975Z,5.82
2023-01-23T09:46:48.185Z,6.32
2023-01-23T09:51:18.753Z,8.82
2023-01-23T09:55:35.831Z,8.35
2023-01-23T09:59:54.040Z,7.35
2023-01-23T10:04:02.027Z,6.50
2023-01-23T10:08:42.195Z,10.23
2023-01-23T10:13:09.319Z,7.78
2023-01-23T10:17:23.346Z,7.80
2023-01-23T10:21:37.380Z,7.38
2023-01-23T10:25:41.325Z,5.85
2023-01-23T10:29:48.463Z,8.75
2023-01-23T10:34:05.409Z,6.90
2023-01-23T10:38:41.861Z,7.50
2023-01-23T10:42:43.780Z,7.88
2023-01-23T10:46:54.329Z,6.47
2023-01-23T10:50:56.188Z,7.03
2023-01-23T10:54:58.896Z,6.25
2023-01-23T10:59:02.355Z,5.63
2023-01-23T11:03:22.441Z,6.40
2023-01-23T11:07:29.485Z,5.38
2023-01-23T11:15:42.106Z,6.60
2023-01-23T11:19:46.556Z,6.45
2023-01-23T11:23:48.308Z,6.70
2023-01-23T11:27:58.804Z,6.65
2023-01-23T11:32:10.345Z,5.05
2023-01-23T11:36:18.109Z,5.80
2023-01-23T11:40:20.593Z,5.05
2023-01-23T11:44:24.430Z,5.68
2023-01-23T11:48:44.649Z,5.40
2023-01-23T11:52:57.699Z,5.18
2023-01-23T11:57:05.720Z,6.45
2023-01-23T12:01:15.352Z,5.47
2023-01-23T12:05:29.805Z,7.32
2023-01-23T12:09:50.413Z,6.50
2023-01-23T12:14:21.248Z,8.70
2023-01-23T12:18:36.203Z,7.63
2023-01-23T12:22:56.546Z,5.47
2023-01-23T12:27:26.901Z,6.28
2023-01-23T12:31:56.758Z,6.20
2023-01-23T12:36:01.483Z,6.28
2023-01-23T12:40:12.504Z,7.03
2023-01-23T12:44:26.680Z,7.75
2023-01-23T12:48:37.957Z,6.75
2023-01-23T12:52:48.003Z,5.63
2023-01-23T13:01:23.807Z,5.60
2023-01-23T13:05:56.367Z,6.43
2023-01-23T13:10:27.013Z,5.07
2023-01-23T13:14:43.391Z,4.97
2023-01-23T13:19:14.079Z,4.40
2023-01-23T13:23:33.479Z,5.80
2023-01-23T13:27:35.292Z,6.90
2023-01-23T13:31:50.556Z,8.45
2023-01-23T13:35:55.921Z,6.85
2023-01-23T13:40:19.471Z,5.80
2023-01-23T13:44:40.664Z,5.72
2023-01-23T14:20:19.389Z,4.90
2023-01-23T14:24:29.267Z,4.97
2023-01-23T14:28:31.385Z,4.20
2023-01-23T14:32:33.982Z,4.00
2023-01-23T14:36:37.639Z,6.90
2023-01-23T14:40:50.557Z,4.53
2023-01-23T14:44:54.299Z,4.65
2023-01-23T14:48:56.529Z,4.97
2023-01-23T14:53:03.359Z,5.35
2023-01-23T14:57:06.223Z,5.25
2023-01-23T15:01:10.612Z,4.32
2023-01-23T15:05:15.252Z,3.90
2023-01-23T15:09:17.934Z,4.05
2023-01-23T15:13:24.518Z,4.85
2023-01-23T15:17:26.509Z,5.10
2023-01-23T15:21:31.643Z,4.72
2023-01-23T15:25:33.864Z,4.22
2023-01-23T15:29:35.718Z,4.28
2023-01-23T15:33:40.344Z,4.38
2023-01-23T15:37:47.585Z,3.95
2023-01-23T15:41:56.115Z,3.78
2023-01-23T15:45:57.879Z,6.43
2023-01-23T15:50:03.150Z,7.20
2023-01-23T15:54:06.638Z,4.95
2023-01-23T15:58:15.200Z,5.05
2023-01-23T16:02:30.752Z,5.28
2023-01-23T16:06:33.777Z,5.63
2023-01-23T16:10:38.108Z,4.88
2023-01-23T16:14:39.875Z,4.65
2023-01-23T16:18:41.659Z,4.88
2023-01-23T16:22:45.342Z,4.78
2023-01-23T16:26:50.587Z,4.13
2023-01-23T16:30:52.895Z,5.25
2023-01-23T16:34:54.692Z,4.75
2023-01-23T16:38:56.551Z,4.60
2023-01-23T16:42:59.939Z,4.43
2023-01-23T16:47:01.740Z,4.57
2023-01-23T16:51:11.842Z,4.80
2023-01-23T16:55:22.910Z,4.15
2023-01-23T16:59:37.527Z,5.13
2023-01-23T17:03:42.891Z,5.07
2023-01-23T17:07:47.290Z,4.85
2023-01-23T17:11:53.531Z,5.55
2023-01-23T17:15:56.204Z,6.77
2023-01-23T17:19:59.204Z,5.97
2023-01-23T17:24:01.065Z,7.80
2023-01-23T17:28:12.936Z,5.80
2023-01-23T17:32:27.875Z,6.05
2023-01-23T17:36:29.659Z,5.97
2023-01-23T17:40:31.829Z,7.07
2023-01-23T17:44:33.754Z,5.70
2023-01-23T17:48:40.618Z,6.20
2023-01-23T17:52:42.398Z,5.00
2023-01-23T17:56:44.142Z,5.05
2023-01-23T18:00:52.446Z,5.63
2023-01-23T18:04:54.909Z,4.88
2023-01-23T18:08:56.652Z,6.22
2023-01-23T18:13:10.674Z,5.80
2023-01-23T18:17:29.040Z,6.82
2023-01-23T18:21:31.139Z,5.55
2023-01-23T18:25:33.223Z,8.15
2023-01-23T18:29:56.668Z,6.43
2023-01-23T18:34:14.693Z,7.13
2023-01-23T18:38:21.274Z,10.90
2023-01-23T18:42:28.732Z,8.18
2023-01-23T18:46:30.796Z,8.60
2023-01-23T18:50:32.930Z,7.15
2023-01-23T18:54:51.834Z,5.82
2023-01-23T18:59:10.480Z,6.03
2023-01-23T19:03:15.577Z,5.43
2023-01-23T19:07:19.261Z,8.25
2023-01-23T19:11:39.185Z,6.65
2023-01-23T19:15:41.058Z,4.82
2023-01-23T19:20:03.793Z,6.90
2023-01-23T19:24:07.197Z,5.07
2023-01-23T19:28:10.299Z,7.82
2023-01-23T19:32:12.205Z,5.70
2023-01-23T19:36:14.004Z,5.55
2023-01-23T19:40:16.725Z,4.90
2023-01-23T19:44:20.775Z,4.55
2023-01-23T19:48:22.523Z,4.95
2023-01-23T19:52:24.276Z,5.03
2023-01-23T19:56:27.045Z,4.47
2023-01-23T20:00:31.211Z,9.32
2023-01-23T20:04:32.971Z,7.47
2023-01-23T20:08:34.771Z,7.25
2023-01-23T20:12:51.729Z,5.25
2023-01-23T20:16:53.613Z,5.18
2023-01-23T20:20:59.093Z,4.05
2023-01-23T20:25:00.951Z,4.70
2023-01-23T20:29:04.073Z,4.85
2023-01-23T20:33:07.395Z,5.63
2023-01-23T20:37:09.627Z,5.95
2023-01-23T20:41:14.107Z,5.05
2023-01-23T20:45:16.029Z,7.22
2023-01-23T20:49:18.198Z,6.82
2023-01-23T20:53:34.092Z,5.43
2023-01-23T20:57:54.119Z,4.10
2023-01-23T21:02:14.761Z,4.80
2023-01-23T21:06:17.800Z,4.78
2023-01-23T21:10:19.568Z,5.65
2023-01-23T21:14:23.301Z,5.15
2023-01-23T21:18:25.724Z,4.00
2023-01-23T21:22:27.625Z,5.82
2023-01-23T21:26:30.079Z,5.30
2023-01-23T21:30:31.911Z,4.63
2023-01-23T21:34:33.855Z,4.30
2023-01-23T21:38:35.672Z,5.55
2023-01-23T21:42:37.549Z,5.72
2023-01-23T21:46:39.556Z,4.47
2023-01-23T21:50:41.350Z,4.38
2023-01-23T21:54:43.240Z,3.95
2023-01-23T21:58:47.130Z,4.25
2023-01-23T22:02:49.096Z,6.05
2023-01-23T22:06:54.926Z,6.03
2023-01-23T22:10:57.034Z,6.30
2023-01-23T22:14:58.777Z,6.53
2023-01-23T22:19:00.538Z,5.90
2023-01-23T22:23:02.284Z,5.53
2023-01-23T22:27:04.165Z,6.65
2023-01-23T22:31:11.681Z,5.60
2023-01-23T22:35:13.583Z,7.25
2023-01-23T22:39:19.757Z,5.30
2023-01-23T22:43:21.561Z,5.93
2023-01-23T22:47:23.382Z,6.38
2023-01-23T22:51:27.093Z,5.40
2023-01-23T22:55:28.860Z,7.00
2023-01-23T22:59:30.649Z,6.25
2023-01-23T23:03:33.940Z,8.32
2023-01-23T23:07:36.864Z,6.53
2023-01-23T23:11:39.697Z,5.53
2023-01-23T23:15:41.457Z,4.93
2023-01-23T23:19:43.271Z,6.95
2023-01-23T23:23:46.117Z,6.43
2023-01-23T23:27:47.932Z,6.88
2023-01-23T23:31:52.954Z,5.68
2023-01-23T23:35:55.527Z,5.32
2023-01-23T23:39:57.267Z,6.60
2023-01-23T23:43:59.046Z,6.30
2023-01-23T23:48:02.269Z,7.03
2023-01-23T23:52:04.290Z,8.13
2023-01-23T23:56:07.716Z,6.72
